createdAt,value
2022-09-01T00:00:01.950Z,6.80
2022-09-01T00:02:33.444Z,11.82
2022-09-01T00:05:00.888Z,11.65
2022-09-01T00:07:30.541Z,12.20
2022-09-01T00:09:59.633Z,14.73
2022-09-01T00:12:28.950Z,14.50
2022-09-01T00:14:56.258Z,12.85
2022-09-01T00:17:23.547Z,14.13
2022-09-01T00:19:50.924Z,9.63
2022-09-01T00:22:18.189Z,12.52
2022-09-01T00:24:45.440Z,9.15
2022-09-01T00:27:12.937Z,12.25
2022-09-01T00:29:44.062Z,9.77
2022-09-01T00:32:12.292Z,7.65
2022-09-01T00:34:39.822Z,12.20
2022-09-01T00:37:07.775Z,11.07
2022-09-01T00:39:35.178Z,11.02
2022-09-01T00:42:02.981Z,12.57
2022-09-01T00:44:31.413Z,13.55
2022-09-01T00:47:00.140Z,14.30
2022-09-01T00:49:41.635Z,13.15
2022-09-01T00:52:16.967Z,10.52
2022-09-01T00:54:47.899Z,12.98
2022-09-01T00:57:16.378Z,14.40
2022-09-01T00:59:49.998Z,13.65
2022-09-01T01:02:17.540Z,15.77
2022-09-01T01:04:46.287Z,14.35
2022-09-01T01:07:15.068Z,11.90
2022-09-01T01:09:44.949Z,12.85
2022-09-01T01:12:13.764Z,14.25
2022-09-01T01:14:41.755Z,17.25
2022-09-01T01:17:13.312Z,15.70
2022-09-01T01:20:04.922Z,12.00
2022-09-01T01:23:02.481Z,15.52
2022-09-01T01:25:40.319Z,13.45
2022-09-01T01:28:31.881Z,16.13
2022-09-01T01:33:42.890Z,16.35
2022-09-01T01:36:19.310Z,16.42
2022-09-01T01:38:49.264Z,10.15
2022-09-01T01:41:19.643Z,14.93
2022-09-01T01:43:51.124Z,16.63
2022-09-01T01:46:20.648Z,11.30
2022-09-01T01:48:48.670Z,10.52
2022-09-01T01:51:20.133Z,15.25
2022-09-01T01:53:52.655Z,14.85
2022-09-01T01:56:23.921Z,16.83
2022-09-01T01:58:56.372Z,15.93
2022-09-01T02:01:28.745Z,16.15
2022-09-01T02:03:59.177Z,16.63
2022-09-01T02:06:28.701Z,13.88
2022-09-01T02:08:59.095Z,15.55
2022-09-01T02:11:27.055Z,14.77
2022-09-01T02:13:57.310Z,16.35
2022-09-01T02:16:28.105Z,10.82
2022-09-01T02:18:57.013Z,13.73
2022-09-01T02:21:25.347Z,15.00
2022-09-01T02:24:02.239Z,13.10
2022-09-01T02:26:39.604Z,14.65
2022-09-01T02:29:18.008Z,9.32
2022-09-01T02:31:51.910Z,13.10
2022-09-01T02:34:20.627Z,16.67
2022-09-01T02:36:51.332Z,14.65
2022-09-01T02:39:24.477Z,14.73
2022-09-01T02:41:52.180Z,15.55
2022-09-01T02:44:24.468Z,12.30
2022-09-01T02:46:51.700Z,13.57
2022-09-01T02:49:28.289Z,14.25
2022-09-01T02:51:59.559Z,13.45
2022-09-01T02:54:28.751Z,13.70
2022-09-01T02:56:56.043Z,12.88
2022-09-01T02:59:27.705Z,11.65
2022-09-01T03:01:58.856Z,15.27
2022-09-01T03:04:27.275Z,17.27
2022-09-01T03:06:58.683Z,16.48
2022-09-01T03:09:26.124Z,15.55
2022-09-01T03:11:54.432Z,14.38
2022-09-01T03:14:24.277Z,15.80
2022-09-01T03:16:52.603Z,10.52
2022-09-01T03:19:20.377Z,8.02
2022-09-01T03:21:48.684Z,11.63
2022-09-01T03:24:22.345Z,15.07
2022-09-01T03:26:51.625Z,16.30
2022-09-01T03:29:19.980Z,15.90
2022-09-01T03:31:47.782Z,18.45
2022-09-01T03:34:19.264Z,18.33
2022-09-01T03:36:50.896Z,15.52
2022-09-01T03:39:36.683Z,15.95
2022-09-01T03:42:05.078Z,15.93
2022-09-01T03:44:38.303Z,15.63
2022-09-01T03:47:10.716Z,17.23
2022-09-01T03:49:39.408Z,18.00
2022-09-01T03:52:08.918Z,13.93
2022-09-01T03:54:36.733Z,16.90
2022-09-01T03:57:06.812Z,18.42
2022-09-01T03:59:34.197Z,19.08
2022-09-01T04:02:02.868Z,18.45
2022-09-01T04:04:33.154Z,16.70
2022-09-01T04:07:00.720Z,17.70
2022-09-01T04:09:29.304Z,18.80
2022-09-01T04:11:56.550Z,18.15
2022-09-01T04:14:25.543Z,17.45
2022-09-01T04:17:13.852Z,16.25
2022-09-01T04:19:43.036Z,23.00
2022-09-01T04:22:14.360Z,18.63
2022-09-01T04:24:45.990Z,17.33
2022-09-01T04:27:15.434Z,18.48
2022-09-01T04:29:46.510Z,20.20
2022-09-01T04:32:15.812Z,21.20
2022-09-01T04:34:46.932Z,19.73
2022-09-01T04:37:21.159Z,20.75
2022-09-01T04:39:56.488Z,22.92
2022-09-01T04:42:28.126Z,23.88
2022-09-01T04:44:57.617Z,21.13
2022-09-01T04:47:36.253Z,19.02
2022-09-01T04:50:17.554Z,18.23
2022-09-01T04:53:06.135Z,22.52
2022-09-01T04:55:43.636Z,19.88
2022-09-01T04:58:17.438Z,18.35
2022-09-01T05:00:48.244Z,23.02
2022-09-01T05:03:21.486Z,23.70
2022-09-01T05:06:00.226Z,23.85
2022-09-01T05:08:28.985Z,24.23
2022-09-01T05:11:07.503Z,19.75
2022-09-01T05:13:39.721Z,22.70
2022-09-01T05:16:13.227Z,17.23
2022-09-01T05:18:47.837Z,25.83
2022-09-01T05:21:19.913Z,19.45
2022-09-01T05:23:51.748Z,18.80
2022-09-01T05:26:23.417Z,22.90
2022-09-01T05:28:54.927Z,20.02
2022-09-01T05:31:24.020Z,16.08
2022-09-01T05:33:51.844Z,17.10
2022-09-01T05:36:23.008Z,12.65
2022-09-01T05:38:52.315Z,10.32
2022-09-01T05:41:21.117Z,12.80
2022-09-01T05:43:55.082Z,10.90
2022-09-01T05:46:28.142Z,11.07
2022-09-01T05:48:57.329Z,15.52
2022-09-01T05:51:43.862Z,15.73
2022-09-01T05:54:14.393Z,15.13
2022-09-01T05:56:44.099Z,16.15
2022-09-01T05:59:23.467Z,13.40
2022-09-01T06:01:54.612Z,13.98
2022-09-01T06:04:25.490Z,13.05
2022-09-01T06:07:06.065Z,10.32
2022-09-01T06:09:43.177Z,14.77
2022-09-01T06:12:17.804Z,14.02
2022-09-01T06:14:50.063Z,15.73
2022-09-01T06:17:24.650Z,8.20
2022-09-01T06:19:56.845Z,9.90
2022-09-01T06:22:26.762Z,9.30
2022-09-01T06:24:59.447Z,10.98
2022-09-01T06:27:33.014Z,10.45
2022-09-01T06:30:00.277Z,11.20
2022-09-01T06:32:27.940Z,9.93
2022-09-01T06:34:58.153Z,17.15
2022-09-01T06:37:27.063Z,16.50
2022-09-01T06:39:58.551Z,12.50
2022-09-01T06:42:26.653Z,10.82
2022-09-01T06:44:59.792Z,10.80
2022-09-01T06:47:28.617Z,11.35
2022-09-01T06:49:59.449Z,11.38
2022-09-01T06:52:28.701Z,12.20
2022-09-01T06:54:57.934Z,12.23
2022-09-01T07:00:20.199Z,9.95
2022-09-01T07:02:54.920Z,6.88
2022-09-01T07:06:03.033Z,9.75
2022-09-01T07:12:08.502Z,10.68
2022-09-01T07:16:30.195Z,8.25
2022-09-01T07:17:25.373Z,8.75
2022-09-01T07:19:53.991Z,8.13
2022-09-01T07:23:02.985Z,10.30
2022-09-01T07:25:12.926Z,8.27
2022-09-01T07:28:06.679Z,8.15
2022-09-01T07:30:35.290Z,6.75
2022-09-01T07:44:54.000Z,5.85
2022-09-01T07:47:52.769Z,8.50
2022-09-01T07:53:12.614Z,9.13
2022-09-01T07:55:44.315Z,9.68
2022-09-01T07:58:15.115Z,5.75
2022-09-01T08:00:47.343Z,6.32
2022-09-01T08:03:20.170Z,5.47
2022-09-01T08:05:51.295Z,5.75
2022-09-01T08:08:18.974Z,6.05
2022-09-01T08:10:49.429Z,6.50
2022-09-01T08:13:20.004Z,5.18
2022-09-01T08:18:52.842Z,5.30
2022-09-01T08:21:46.235Z,7.72
2022-09-01T08:24:24.751Z,6.55
2022-09-01T08:26:52.081Z,5.03
2022-09-01T08:29:19.408Z,9.98
2022-09-01T08:31:47.558Z,6.78
2022-09-01T08:34:17.022Z,4.82
2022-09-01T08:36:44.373Z,6.00
2022-09-01T08:39:12.158Z,4.32
2022-09-01T08:41:53.555Z,5.60
2022-09-01T08:44:26.875Z,5.80
2022-09-01T08:47:03.717Z,4.55
2022-09-01T08:49:42.899Z,4.65
2022-09-01T08:52:33.168Z,6.05
2022-09-01T08:55:27.537Z,8.18
2022-09-01T08:57:59.869Z,7.32
2022-09-01T09:00:30.737Z,8.05
2022-09-01T09:03:15.648Z,6.28
2022-09-01T09:06:13.924Z,3.15
2022-09-01T09:08:43.991Z,9.07
2022-09-01T09:11:30.125Z,4.28
2022-09-01T09:14:00.175Z,11.48
2022-09-01T09:16:35.462Z,5.55
2022-09-01T09:19:11.522Z,5.03
2022-09-01T09:21:48.115Z,4.53
2022-09-01T09:24:47.095Z,6.18
2022-09-01T09:27:23.979Z,5.88
2022-09-01T09:29:58.207Z,9.25
2022-09-01T09:33:19.923Z,3.58
2022-09-01T09:35:41.996Z,4.80
2022-09-01T09:38:29.172Z,4.65
2022-09-01T09:41:20.256Z,4.97
2022-09-01T09:44:05.290Z,4.20
2022-09-01T09:46:32.645Z,5.68
2022-09-01T09:49:36.488Z,3.70
2022-09-01T09:52:08.748Z,3.90
2022-09-01T09:54:38.619Z,7.70
2022-09-01T09:57:08.553Z,7.20
2022-09-01T10:00:02.488Z,9.40
2022-09-01T10:02:43.981Z,3.42
2022-09-01T10:05:43.268Z,4.68
2022-09-01T10:08:28.694Z,6.55
2022-09-01T10:10:57.878Z,11.60
2022-09-01T10:13:32.690Z,5.75
2022-09-01T10:16:05.673Z,3.92
2022-09-01T10:18:39.747Z,5.65
2022-09-01T10:21:26.532Z,7.85
2022-09-01T10:23:54.641Z,3.85
2022-09-01T10:26:35.503Z,4.55
2022-09-01T10:29:15.669Z,3.17
2022-09-01T10:31:43.431Z,4.32
2022-09-01T10:34:19.400Z,6.53
2022-09-01T10:36:56.747Z,3.22
2022-09-01T10:39:29.472Z,5.43
2022-09-01T10:42:07.063Z,5.65
2022-09-01T10:44:57.896Z,4.70
2022-09-01T10:47:33.342Z,6.90
2022-09-01T10:50:09.889Z,5.32
2022-09-01T10:52:44.015Z,4.88
2022-09-01T10:55:24.977Z,5.15
2022-09-01T11:01:34.958Z,6.05
2022-09-01T11:04:03.558Z,4.85
2022-09-01T11:06:35.939Z,7.55
2022-09-01T11:09:06.777Z,5.45
2022-09-01T11:11:33.937Z,10.63
2022-09-01T11:14:04.100Z,3.95
2022-09-01T11:16:53.689Z,5.07
2022-09-01T11:19:47.500Z,8.63
2022-09-01T11:22:26.484Z,7.70
2022-09-01T11:25:41.025Z,4.45
2022-09-01T11:28:17.981Z,6.65
2022-09-01T11:30:55.318Z,5.00
2022-09-01T11:33:34.492Z,7.15
2022-09-01T11:36:03.916Z,4.65
2022-09-01T11:38:43.658Z,6.28
2022-09-01T11:41:22.979Z,6.22
2022-09-01T11:43:54.418Z,7.70
2022-09-01T11:46:29.178Z,7.75
2022-09-01T11:48:58.488Z,9.23
2022-09-01T11:51:26.086Z,4.20
2022-09-01T11:54:00.569Z,5.22
2022-09-01T11:56:28.776Z,7.78
2022-09-01T11:58:56.042Z,4.57
2022-09-01T12:01:33.373Z,4.68
2022-09-01T12:04:31.855Z,5.85
2022-09-01T12:07:13.134Z,6.45
2022-09-01T12:09:47.991Z,6.07
2022-09-01T12:12:33.390Z,5.20
2022-09-01T12:15:06.657Z,6.68
2022-09-01T12:17:35.831Z,5.63
2022-09-01T12:20:31.113Z,5.35
2022-09-01T12:23:00.093Z,5.95
2022-09-01T12:25:33.295Z,6.03
2022-09-01T12:28:02.856Z,5.75
2022-09-01T12:30:35.309Z,5.60
2022-09-01T12:36:11.411Z,5.20
2022-09-01T12:38:38.652Z,3.60
2022-09-01T12:41:24.295Z,5.25
2022-09-01T12:43:54.838Z,5.88
2022-09-01T12:46:43.431Z,7.03
2022-09-01T12:49:25.315Z,5.97
2022-09-01T12:52:19.895Z,5.55
2022-09-01T12:54:53.815Z,3.60
2022-09-01T12:57:31.451Z,6.07
2022-09-01T13:00:11.186Z,3.83
2022-09-01T13:02:49.779Z,3.58
2022-09-01T13:05:42.327Z,2.97
2022-09-01T13:08:12.936Z,4.03
2022-09-01T13:10:44.730Z,3.17
2022-09-01T13:13:13.242Z,5.40
2022-09-01T13:15:48.202Z,4.82
2022-09-01T13:18:16.393Z,2.80
2022-09-01T13:20:44.198Z,2.97
2022-09-01T13:23:12.791Z,2.78
2022-09-01T13:25:41.569Z,5.63
2022-09-01T13:28:08.932Z,4.25
2022-09-01T13:30:36.178Z,2.70
2022-09-01T13:33:20.489Z,4.05
2022-09-01T13:35:49.390Z,4.45
2022-09-01T13:38:17.213Z,2.42
2022-09-01T13:40:46.935Z,2.92
2022-09-01T13:43:16.579Z,2.67
2022-09-01T13:45:45.057Z,2.63
2022-09-01T13:48:15.860Z,2.50
2022-09-01T13:53:33.959Z,2.40
2022-09-01T13:56:01.678Z,5.85
2022-09-01T13:58:28.923Z,2.60
2022-09-01T14:00:59.487Z,2.30
2022-09-01T14:03:27.062Z,3.35
2022-09-01T14:05:54.724Z,2.30
2022-09-01T14:08:22.923Z,3.95
2022-09-01T14:10:52.455Z,3.05
2022-09-01T14:13:21.757Z,3.65
2022-09-01T14:15:49.946Z,2.90
2022-09-01T14:18:17.960Z,3.83
2022-09-01T14:20:48.182Z,3.47
2022-09-01T14:23:15.875Z,2.80
2022-09-01T14:25:46.023Z,5.25
2022-09-01T14:28:14.039Z,3.08
2022-09-01T14:30:43.935Z,2.72
2022-09-01T14:33:12.368Z,2.58
2022-09-01T14:35:42.320Z,1.85
2022-09-01T14:38:11.607Z,3.08
2022-09-01T14:40:57.228Z,1.98
2022-09-01T14:43:28.605Z,4.20
2022-09-01T14:46:07.360Z,2.15
2022-09-01T14:48:35.364Z,2.65
2022-09-01T14:51:02.969Z,2.25
2022-09-01T14:53:32.014Z,2.45
2022-09-01T14:56:00.753Z,2.65
2022-09-01T14:58:29.812Z,3.88
2022-09-01T15:01:03.482Z,3.30
2022-09-01T15:03:34.697Z,4.97
2022-09-01T15:06:01.936Z,3.13
2022-09-01T15:08:29.182Z,3.58
2022-09-01T15:10:56.407Z,4.03
2022-09-01T15:13:23.622Z,2.47
2022-09-01T15:15:50.870Z,3.58
2022-09-01T15:18:18.215Z,4.28
2022-09-01T15:20:45.504Z,4.30
2022-09-01T15:23:22.403Z,3.83
2022-09-01T15:25:53.814Z,2.30
2022-09-01T15:28:22.912Z,3.45
2022-09-01T15:30:54.309Z,3.10
2022-09-01T15:33:21.902Z,3.05
2022-09-01T15:35:49.386Z,5.63
2022-09-01T15:38:17.947Z,5.25
2022-09-01T15:40:50.282Z,3.83
2022-09-01T15:43:26.452Z,2.90
2022-09-01T15:45:53.732Z,5.15
2022-09-01T15:48:21.014Z,2.15
2022-09-01T15:50:48.260Z,2.90
2022-09-01T15:53:15.563Z,3.10
2022-09-01T15:55:47.246Z,3.22
2022-09-01T15:58:17.096Z,2.10
2022-09-01T16:00:45.667Z,6.25
2022-09-01T16:03:13.422Z,2.45
2022-09-01T16:05:41.134Z,2.83
2022-09-01T16:08:09.985Z,2.97
2022-09-01T16:10:40.092Z,2.70
2022-09-01T16:13:08.224Z,4.15
2022-09-01T16:15:58.224Z,4.10
2022-09-01T16:18:48.188Z,2.78
2022-09-01T16:21:37.471Z,4.13
2022-09-01T16:24:09.571Z,2.53
2022-09-01T16:26:37.672Z,3.78
2022-09-01T16:29:15.435Z,4.82
2022-09-01T16:31:43.047Z,3.50
2022-09-01T16:34:18.071Z,2.83
2022-09-01T16:37:09.991Z,2.97
2022-09-01T16:40:05.777Z,5.25
2022-09-01T16:43:08.797Z,1.92
2022-09-01T16:45:46.466Z,5.13
2022-09-01T16:48:30.871Z,2.65
2022-09-01T16:51:13.549Z,2.67
2022-09-01T16:54:09.047Z,5.18
2022-09-01T16:56:47.286Z,6.15
2022-09-01T16:59:48.771Z,2.40
2022-09-01T17:02:40.577Z,5.63
2022-09-01T17:05:24.520Z,4.07
2022-09-01T17:08:10.222Z,2.92
2022-09-01T17:10:51.099Z,2.47
2022-09-01T17:13:26.004Z,3.75
2022-09-01T17:16:07.927Z,2.22
2022-09-01T17:18:40.266Z,3.13
2022-09-01T17:21:13.968Z,3.20
2022-09-01T17:23:50.587Z,3.83
2022-09-01T17:26:29.068Z,3.70
2022-09-01T17:29:09.440Z,3.72
2022-09-01T17:31:47.403Z,2.97
2022-09-01T17:34:43.796Z,3.95
2022-09-01T17:37:21.860Z,4.97
2022-09-01T17:40:16.408Z,5.20
2022-09-01T17:42:55.507Z,3.63
2022-09-01T17:45:54.083Z,3.92
2022-09-01T17:48:40.000Z,6.05
2022-09-01T17:51:31.679Z,7.80
2022-09-01T17:54:24.871Z,3.45
2022-09-01T17:57:15.275Z,3.17
2022-09-01T18:00:01.570Z,3.53
2022-09-01T18:02:58.171Z,3.65
2022-09-01T18:05:26.651Z,3.15
2022-09-01T18:08:21.564Z,4.60
2022-09-01T18:11:00.063Z,5.18
2022-09-01T18:13:52.512Z,4.45
2022-09-01T18:16:31.911Z,4.13
2022-09-01T18:19:14.549Z,3.38
2022-09-01T18:21:49.606Z,5.27
2022-09-01T18:24:22.126Z,3.10
2022-09-01T18:26:51.560Z,4.07
2022-09-01T18:29:19.553Z,2.65
2022-09-01T18:32:03.712Z,2.55
2022-09-01T18:34:36.627Z,4.60
2022-09-01T18:37:19.478Z,2.95
2022-09-01T18:40:07.633Z,6.13
2022-09-01T18:43:16.701Z,5.78
2022-09-01T18:45:58.708Z,4.85
2022-09-01T18:48:49.748Z,4.50
2022-09-01T18:51:44.147Z,5.20
2022-09-01T18:54:50.140Z,4.18
2022-09-01T18:57:21.137Z,5.85
2022-09-01T19:00:00.010Z,5.80
2022-09-01T19:03:04.674Z,4.40
2022-09-01T19:05:38.356Z,4.10
2022-09-01T19:08:17.688Z,2.83
2022-09-01T19:11:03.155Z,3.70
2022-09-01T19:13:32.519Z,3.33
2022-09-01T19:16:21.525Z,3.28
2022-09-01T19:19:13.628Z,4.15
2022-09-01T19:21:43.778Z,2.88
2022-09-01T19:24:52.988Z,4.30
2022-09-01T19:27:24.736Z,3.28
2022-09-01T19:29:57.921Z,5.80
2022-09-01T19:35:16.839Z,3.83
2022-09-01T19:37:47.970Z,2.95
2022-09-01T19:40:24.832Z,2.92
2022-09-01T19:43:05.202Z,4.65
2022-09-01T19:45:38.243Z,3.75
2022-09-01T19:48:29.256Z,3.05
2022-09-01T19:51:13.442Z,3.63
2022-09-01T19:53:49.675Z,3.75
2022-09-01T19:56:23.502Z,3.15
2022-09-01T19:59:15.205Z,4.05
2022-09-01T20:02:11.412Z,3.65
2022-09-01T20:04:49.441Z,4.15
2022-09-01T20:07:36.216Z,3.25
2022-09-01T20:10:21.786Z,3.88
2022-09-01T20:13:26.937Z,5.38
2022-09-01T20:16:04.162Z,3.67
2022-09-01T20:18:36.085Z,3.20
2022-09-01T20:21:08.978Z,1.98
2022-09-01T20:24:08.337Z,3.80
2022-09-01T20:26:43.274Z,3.53
2022-09-01T20:29:35.924Z,5.57
2022-09-01T20:32:04.079Z,4.10
2022-09-01T20:34:52.905Z,7.05
2022-09-01T20:37:34.382Z,5.15
2022-09-01T20:40:17.625Z,3.17
2022-09-01T20:43:28.086Z,4.15
2022-09-01T20:45:55.395Z,6.53
2022-09-01T20:48:25.988Z,4.07
2022-09-01T20:50:59.715Z,7.63
2022-09-01T20:53:35.730Z,10.10
2022-09-01T20:56:40.449Z,3.15
2022-09-01T20:59:25.655Z,3.08
2022-09-01T21:02:29.801Z,2.58
2022-09-01T21:05:14.992Z,3.88
2022-09-01T21:08:09.325Z,6.00
2022-09-01T21:11:14.671Z,5.15
2022-09-01T21:14:14.231Z,3.53
2022-09-01T21:17:08.826Z,5.13
2022-09-01T21:20:06.214Z,3.40
2022-09-01T21:22:33.440Z,4.47
2022-09-01T21:25:01.038Z,3.17
2022-09-01T21:27:36.878Z,3.45
2022-09-01T21:30:10.831Z,4.28
2022-09-01T21:32:39.173Z,4.38
2022-09-01T21:35:09.934Z,4.95
2022-09-01T21:37:37.570Z,4.95
2022-09-01T21:40:06.796Z,5.78
2022-09-01T21:42:48.962Z,5.53
2022-09-01T21:45:18.803Z,6.50
2022-09-01T21:47:48.636Z,5.80
2022-09-01T21:50:18.455Z,5.15
2022-09-01T21:52:45.668Z,5.63
2022-09-01T21:55:13.351Z,5.90
2022-09-01T21:57:42.087Z,5.03
2022-09-01T22:00:15.837Z,4.40
2022-09-01T22:02:44.774Z,4.50
2022-09-01T22:05:13.035Z,4.63
2022-09-01T22:07:42.784Z,4.55
2022-09-01T22:10:13.485Z,4.68
2022-09-01T22:12:43.819Z,4.20
2022-09-01T22:15:13.336Z,2.97
2022-09-01T22:17:40.635Z,3.78
2022-09-01T22:20:10.272Z,5.60
2022-09-01T22:22:37.898Z,6.45
2022-09-01T22:25:11.286Z,4.07
2022-09-01T22:27:38.878Z,4.25
2022-09-01T22:30:07.846Z,6.07
2022-09-01T22:32:37.872Z,3.05
2022-09-01T22:35:08.192Z,8.32
2022-09-01T22:37:36.688Z,7.00
2022-09-01T22:40:05.716Z,4.45
2022-09-01T22:42:33.336Z,5.32
2022-09-01T22:45:01.399Z,3.30
2022-09-01T22:47:29.051Z,8.77
2022-09-01T22:49:56.314Z,6.45
2022-09-01T22:52:23.547Z,6.43
2022-09-01T22:54:52.285Z,5.40
2022-09-01T22:57:20.241Z,5.72
2022-09-01T22:59:47.756Z,4.60
2022-09-01T23:02:15.097Z,2.95
2022-09-01T23:04:42.560Z,7.00
2022-09-01T23:07:09.811Z,3.97
2022-09-01T23:09:37.032Z,10.13
2022-09-01T23:12:04.424Z,5.78
2022-09-01T23:14:31.902Z,6.95
2022-09-01T23:16:59.859Z,3.22
2022-09-01T23:19:27.130Z,6.43
2022-09-01T23:21:54.559Z,4.68
2022-09-01T23:24:22.020Z,4.18
2022-09-01T23:26:49.267Z,6.15
2022-09-01T23:29:16.992Z,7.43
2022-09-01T23:31:44.407Z,5.90
2022-09-01T23:34:13.275Z,4.15
2022-09-01T23:36:41.492Z,5.60
2022-09-01T23:39:08.790Z,7.05
2022-09-01T23:41:37.923Z,6.95
2022-09-01T23:44:09.426Z,6.47
2022-09-01T23:46:41.290Z,8.15
2022-09-01T23:49:09.956Z,5.60
2022-09-01T23:51:38.807Z,9.82
2022-09-01T23:54:07.013Z,4.10
2022-09-01T23:56:34.614Z,4.05
2022-09-01T23:59:02.137Z,5.15
